sensor_id;sensor_type;location;lat;lon;timestamp;P1;durP1;ratioP1;P2;durP2;ratioP2
17993;SDS011;9122;48.406;9.984;2023-05-23T00:02:10;11.20;;;10.10;;
17993;SDS011;9122;48.406;9.984;2023-05-23T00:04:56;11.30;;;10.05;;
17993;SDS011;9122;48.406;9.984;2023-05-23T00:07:41;11.85;;;10.65;;
17993;SDS011;9122;48.406;9.984;2023-05-23T00:10:25;11.55;;;10.48;;
17993;SDS011;9122;48.406;9.984;2023-05-23T00:13:10;13.25;;;10.32;;
17993;SDS011;9122;48.406;9.984;2023-05-23T00:15:57;12.45;;;11.15;;
17993;SDS011;9122;48.406;9.984;2023-05-23T00:18:41;12.80;;;10.57;;
17993;SDS011;9122;48.406;9.984;2023-05-23T00:21:28;9.95;;;8.90;;
17993;SDS011;9122;48.406;9.984;2023-05-23T00:24:13;12.00;;;9.65;;
17993;SDS011;9122;48.406;9.984;2023-05-23T00:27:01;11.82;;;10.60;;
17993;SDS011;9122;48.406;9.984;2023-05-23T00:29:46;10.90;;;9.80;;
17993;SDS011;9122;48.406;9.984;2023-05-23T00:32:30;11.52;;;10.15;;
17993;SDS011;9122;48.406;9.984;2023-05-23T00:35:14;12.05;;;10.90;;
17993;SDS011;9122;48.406;9.984;2023-05-23T00:37:59;13.55;;;11.00;;
17993;SDS011;9122;48.406;9.984;2023-05-23T00:40:45;11.85;;;10.65;;
17993;SDS011;9122;48.406;9.984;2023-05-23T00:43:29;13.00;;;10.90;;
17993;SDS011;9122;48.406;9.984;2023-05-23T00:46:14;11.73;;;10.52;;
17993;SDS011;9122;48.406;9.984;2023-05-23T00:48:59;11.63;;;10.43;;
17993;SDS011;9122;48.406;9.984;2023-05-23T00:51:44;11.15;;;9.48;;
17993;SDS011;9122;48.406;9.984;2023-05-23T00:54:29;11.68;;;9.68;;
17993;SDS011;9122;48.406;9.984;2023-05-23T00:57:16;12.93;;;10.55;;
17993;SDS011;9122;48.406;9.984;2023-05-23T01:00:01;11.02;;;9.93;;
17993;SDS011;9122;48.406;9.984;2023-05-23T01:02:46;11.35;;;10.25;;
17993;SDS011;9122;48.406;9.984;2023-05-23T01:05:33;13.07;;;10.50;;
17993;SDS011;9122;48.406;9.984;2023-05-23T01:08:19;11.50;;;10.23;;
17993;SDS011;9122;48.406;9.984;2023-05-23T01:11:05;12.85;;;10.68;;
17993;SDS011;9122;48.406;9.984;2023-05-23T01:14:03;11.80;;;10.18;;
17993;SDS011;9122;48.406;9.984;2023-05-23T01:16:57;10.85;;;9.85;;
17993;SDS011;9122;48.406;9.984;2023-05-23T01:19:48;12.38;;;10.65;;
17993;SDS011;9122;48.406;9.984;2023-05-23T01:22:45;12.88;;;10.38;;
17993;SDS011;9122;48.406;9.984;2023-05-23T01:28:44;12.02;;;10.82;;
17993;SDS011;9122;48.406;9.984;2023-05-23T01:31:29;16.08;;;10.65;;
17993;SDS011;9122;48.406;9.984;2023-05-23T01:34:17;13.93;;;10.77;;
17993;SDS011;9122;48.406;9.984;2023-05-23T01:37:07;12.25;;;10.98;;
17993;SDS011;9122;48.406;9.984;2023-05-23T01:39:53;18.88;;;12.70;;
17993;SDS011;9122;48.406;9.984;2023-05-23T01:42:37;14.82;;;12.50;;
17993;SDS011;9122;48.406;9.984;2023-05-23T01:45:23;15.77;;;11.75;;
17993;SDS011;9122;48.406;9.984;2023-05-23T01:48:09;14.15;;;11.57;;
17993;SDS011;9122;48.406;9.984;2023-05-23T01:50:56;13.63;;;11.40;;
17993;SDS011;9122;48.406;9.984;2023-05-23T01:53:41;12.95;;;11.18;;
17993;SDS011;9122;48.406;9.984;2023-05-23T01:56:26;16.65;;;12.55;;
17993;SDS011;9122;48.406;9.984;2023-05-23T01:59:11;16.23;;;13.45;;
17993;SDS011;9122;48.406;9.984;2023-05-23T02:01:56;16.23;;;13.00;;
17993;SDS011;9122;48.406;9.984;2023-05-23T02:04:40;15.68;;;12.55;;
17993;SDS011;9122;48.406;9.984;2023-05-23T02:07:25;21.02;;;16.48;;
17993;SDS011;9122;48.406;9.984;2023-05-23T02:10:09;20.38;;;16.00;;
17993;SDS011;9122;48.406;9.984;2023-05-23T02:12:53;22.02;;;16.13;;
17993;SDS011;9122;48.406;9.984;2023-05-23T02:15:38;19.83;;;14.50;;
17993;SDS011;9122;48.406;9.984;2023-05-23T02:18:22;24.98;;;16.88;;
17993;SDS011;9122;48.406;9.984;2023-05-23T02:21:08;19.67;;;15.75;;
17993;SDS011;9122;48.406;9.984;2023-05-23T02:23:53;19.80;;;15.43;;
17993;SDS011;9122;48.406;9.984;2023-05-23T02:26:37;21.05;;;16.10;;
17993;SDS011;9122;48.406;9.984;2023-05-23T02:29:22;18.48;;;15.73;;
17993;SDS011;9122;48.406;9.984;2023-05-23T02:32:06;23.55;;;16.65;;
17993;SDS011;9122;48.406;9.984;2023-05-23T02:34:51;20.58;;;15.43;;
17993;SDS011;9122;48.406;9.984;2023-05-23T02:37:35;20.20;;;15.98;;
17993;SDS011;9122;48.406;9.984;2023-05-23T02:40:19;21.20;;;15.25;;
17993;SDS011;9122;48.406;9.984;2023-05-23T02:43:03;23.20;;;16.50;;
17993;SDS011;9122;48.406;9.984;2023-05-23T02:45:48;22.27;;;16.30;;
17993;SDS011;9122;48.406;9.984;2023-05-23T02:48:32;21.48;;;16.52;;
17993;SDS011;9122;48.406;9.984;2023-05-23T02:51:16;25.75;;;17.70;;
17993;SDS011;9122;48.406;9.984;2023-05-23T02:54:00;26.65;;;18.45;;
17993;SDS011;9122;48.406;9.984;2023-05-23T02:56:45;24.83;;;17.30;;
17993;SDS011;9122;48.406;9.984;2023-05-23T02:59:29;28.90;;;19.13;;
17993;SDS011;9122;48.406;9.984;2023-05-23T03:02:14;23.63;;;17.95;;
17993;SDS011;9122;48.406;9.984;2023-05-23T03:04:58;30.45;;;19.88;;
17993;SDS011;9122;48.406;9.984;2023-05-23T03:07:43;28.70;;;18.35;;
17993;SDS011;9122;48.406;9.984;2023-05-23T03:10:27;25.80;;;17.30;;
17993;SDS011;9122;48.406;9.984;2023-05-23T03:13:12;30.65;;;19.83;;
17993;SDS011;9122;48.406;9.984;2023-05-23T03:15:57;28.25;;;20.08;;
17993;SDS011;9122;48.406;9.984;2023-05-23T03:18:41;26.80;;;19.65;;
17993;SDS011;9122;48.406;9.984;2023-05-23T03:21:25;29.13;;;19.93;;
17993;SDS011;9122;48.406;9.984;2023-05-23T03:24:10;28.63;;;19.60;;
17993;SDS011;9122;48.406;9.984;2023-05-23T03:26:54;25.58;;;19.13;;
17993;SDS011;9122;48.406;9.984;2023-05-23T03:29:38;27.08;;;19.55;;
17993;SDS011;9122;48.406;9.984;2023-05-23T03:32:23;27.83;;;20.83;;
17993;SDS011;9122;48.406;9.984;2023-05-23T03:35:08;31.65;;;20.60;;
17993;SDS011;9122;48.406;9.984;2023-05-23T03:37:52;25.80;;;19.33;;
17993;SDS011;9122;48.406;9.984;2023-05-23T03:40:37;25.77;;;19.33;;
17993;SDS011;9122;48.406;9.984;2023-05-23T03:43:21;31.00;;;20.58;;
17993;SDS011;9122;48.406;9.984;2023-05-23T03:46:06;29.15;;;20.95;;
17993;SDS011;9122;48.406;9.984;2023-05-23T03:48:50;26.98;;;20.02;;
17993;SDS011;9122;48.406;9.984;2023-05-23T03:51:35;27.80;;;21.03;;
17993;SDS011;9122;48.406;9.984;2023-05-23T03:54:19;26.47;;;20.77;;
17993;SDS011;9122;48.406;9.984;2023-05-23T03:57:04;32.70;;;20.77;;
17993;SDS011;9122;48.406;9.984;2023-05-23T03:59:49;27.45;;;21.00;;
17993;SDS011;9122;48.406;9.984;2023-05-23T04:02:34;26.58;;;20.33;;
17993;SDS011;9122;48.406;9.984;2023-05-23T04:05:19;28.80;;;20.03;;
17993;SDS011;9122;48.406;9.984;2023-05-23T04:08:04;27.70;;;19.63;;
17993;SDS011;9122;48.406;9.984;2023-05-23T04:10:48;26.97;;;20.97;;
17993;SDS011;9122;48.406;9.984;2023-05-23T04:13:33;28.60;;;20.53;;
17993;SDS011;9122;48.406;9.984;2023-05-23T04:16:18;27.87;;;20.80;;
17993;SDS011;9122;48.406;9.984;2023-05-23T04:19:04;28.27;;;20.00;;
17993;SDS011;9122;48.406;9.984;2023-05-23T04:21:48;29.20;;;20.67;;
17993;SDS011;9122;48.406;9.984;2023-05-23T04:24:33;27.63;;;21.33;;
17993;SDS011;9122;48.406;9.984;2023-05-23T04:27:17;31.17;;;22.53;;
17993;SDS011;9122;48.406;9.984;2023-05-23T04:30:01;32.50;;;22.13;;
17993;SDS011;9122;48.406;9.984;2023-05-23T04:32:46;27.10;;;20.73;;
17993;SDS011;9122;48.406;9.984;2023-05-23T04:35:31;29.67;;;20.30;;
17993;SDS011;9122;48.406;9.984;2023-05-23T04:38:17;28.13;;;21.10;;
17993;SDS011;9122;48.406;9.984;2023-05-23T04:41:01;32.20;;;21.33;;
17993;SDS011;9122;48.406;9.984;2023-05-23T04:43:46;28.77;;;21.53;;
17993;SDS011;9122;48.406;9.984;2023-05-23T04:46:30;32.43;;;22.57;;
17993;SDS011;9122;48.406;9.984;2023-05-23T04:49:15;30.77;;;22.33;;
17993;SDS011;9122;48.406;9.984;2023-05-23T04:51:59;30.00;;;21.33;;
17993;SDS011;9122;48.406;9.984;2023-05-23T04:54:44;34.87;;;22.77;;
17993;SDS011;9122;48.406;9.984;2023-05-23T04:57:29;30.73;;;21.77;;
17993;SDS011;9122;48.406;9.984;2023-05-23T05:00:13;32.00;;;22.97;;
17993;SDS011;9122;48.406;9.984;2023-05-23T05:02:58;33.28;;;24.00;;
17993;SDS011;9122;48.406;9.984;2023-05-23T05:05:42;32.60;;;22.38;;
17993;SDS011;9122;48.406;9.984;2023-05-23T05:08:27;29.83;;;21.65;;
17993;SDS011;9122;48.406;9.984;2023-05-23T05:11:11;31.80;;;22.27;;
17993;SDS011;9122;48.406;9.984;2023-05-23T05:13:56;30.42;;;21.45;;
17993;SDS011;9122;48.406;9.984;2023-05-23T05:16:40;32.85;;;23.27;;
17993;SDS011;9122;48.406;9.984;2023-05-23T05:19:25;30.17;;;22.27;;
17993;SDS011;9122;48.406;9.984;2023-05-23T05:22:09;34.53;;;23.90;;
17993;SDS011;9122;48.406;9.984;2023-05-23T05:24:54;33.13;;;22.60;;
17993;SDS011;9122;48.406;9.984;2023-05-23T05:27:38;35.67;;;23.80;;
17993;SDS011;9122;48.406;9.984;2023-05-23T05:30:23;30.37;;;23.30;;
17993;SDS011;9122;48.406;9.984;2023-05-23T05:33:08;36.77;;;24.93;;
17993;SDS011;9122;48.406;9.984;2023-05-23T05:35:53;37.20;;;23.93;;
17993;SDS011;9122;48.406;9.984;2023-05-23T05:38:37;35.05;;;24.58;;
17993;SDS011;9122;48.406;9.984;2023-05-23T05:41:21;35.00;;;24.48;;
17993;SDS011;9122;48.406;9.984;2023-05-23T05:44:07;33.60;;;24.73;;
17993;SDS011;9122;48.406;9.984;2023-05-23T05:46:51;35.47;;;24.83;;
17993;SDS011;9122;48.406;9.984;2023-05-23T05:49:35;34.95;;;25.52;;
17993;SDS011;9122;48.406;9.984;2023-05-23T05:52:20;34.70;;;24.98;;
17993;SDS011;9122;48.406;9.984;2023-05-23T05:55:05;35.40;;;24.98;;
17993;SDS011;9122;48.406;9.984;2023-05-23T05:57:51;38.65;;;25.67;;
17993;SDS011;9122;48.406;9.984;2023-05-23T06:00:35;35.05;;;23.70;;
17993;SDS011;9122;48.406;9.984;2023-05-23T06:03:24;32.63;;;22.88;;
17993;SDS011;9122;48.406;9.984;2023-05-23T06:06:09;37.65;;;24.70;;
17993;SDS011;9122;48.406;9.984;2023-05-23T06:08:54;40.45;;;24.52;;
17993;SDS011;9122;48.406;9.984;2023-05-23T06:11:39;39.10;;;24.77;;
17993;SDS011;9122;48.406;9.984;2023-05-23T06:14:23;43.17;;;25.05;;
17993;SDS011;9122;48.406;9.984;2023-05-23T06:17:08;37.53;;;24.10;;
17993;SDS011;9122;48.406;9.984;2023-05-23T06:19:53;42.75;;;25.33;;
17993;SDS011;9122;48.406;9.984;2023-05-23T06:22:37;34.65;;;25.00;;
17993;SDS011;9122;48.406;9.984;2023-05-23T06:25:22;36.53;;;25.08;;
17993;SDS011;9122;48.406;9.984;2023-05-23T06:28:06;42.00;;;25.38;;
17993;SDS011;9122;48.406;9.984;2023-05-23T06:30:51;39.95;;;24.40;;
17993;SDS011;9122;48.406;9.984;2023-05-23T06:33:36;37.92;;;24.85;;
17993;SDS011;9122;48.406;9.984;2023-05-23T06:36:21;38.20;;;24.95;;
17993;SDS011;9122;48.406;9.984;2023-05-23T06:39:05;37.88;;;23.95;;
17993;SDS011;9122;48.406;9.984;2023-05-23T06:41:52;34.88;;;24.23;;
17993;SDS011;9122;48.406;9.984;2023-05-23T06:44:36;34.88;;;23.67;;
17993;SDS011;9122;48.406;9.984;2023-05-23T06:47:21;35.75;;;23.88;;
17993;SDS011;9122;48.406;9.984;2023-05-23T06:50:06;37.72;;;24.55;;
17993;SDS011;9122;48.406;9.984;2023-05-23T06:52:50;35.05;;;25.73;;
17993;SDS011;9122;48.406;9.984;2023-05-23T06:55:34;41.38;;;25.52;;
17993;SDS011;9122;48.406;9.984;2023-05-23T06:58:20;34.40;;;24.80;;
17993;SDS011;9122;48.406;9.984;2023-05-23T07:01:07;39.60;;;23.73;;
17993;SDS011;9122;48.406;9.984;2023-05-23T07:03:53;36.83;;;24.33;;
17993;SDS011;9122;48.406;9.984;2023-05-23T07:06:38;41.40;;;26.58;;
17993;SDS011;9122;48.406;9.984;2023-05-23T07:09:22;40.08;;;25.88;;
17993;SDS011;9122;48.406;9.984;2023-05-23T07:12:06;38.45;;;24.38;;
17993;SDS011;9122;48.406;9.984;2023-05-23T07:14:51;40.92;;;25.67;;
17993;SDS011;9122;48.406;9.984;2023-05-23T07:17:36;42.78;;;24.70;;
17993;SDS011;9122;48.406;9.984;2023-05-23T07:20:20;40.60;;;23.67;;
17993;SDS011;9122;48.406;9.984;2023-05-23T07:23:05;35.78;;;24.35;;
17993;SDS011;9122;48.406;9.984;2023-05-23T07:25:49;37.45;;;24.48;;
17993;SDS011;9122;48.406;9.984;2023-05-23T07:28:33;35.40;;;24.23;;
17993;SDS011;9122;48.406;9.984;2023-05-23T07:31:18;34.83;;;23.42;;
17993;SDS011;9122;48.406;9.984;2023-05-23T07:34:02;35.58;;;25.00;;
17993;SDS011;9122;48.406;9.984;2023-05-23T07:36:47;35.67;;;25.08;;
17993;SDS011;9122;48.406;9.984;2023-05-23T07:39:32;36.67;;;24.55;;
17993;SDS011;9122;48.406;9.984;2023-05-23T07:42:17;34.90;;;23.55;;
17993;SDS011;9122;48.406;9.984;2023-05-23T07:45:01;33.47;;;23.88;;
17993;SDS011;9122;48.406;9.984;2023-05-23T07:47:46;34.70;;;24.30;;
17993;SDS011;9122;48.406;9.984;2023-05-23T07:50:31;41.75;;;25.15;;
17993;SDS011;9122;48.406;9.984;2023-05-23T07:53:15;34.70;;;24.40;;
17993;SDS011;9122;48.406;9.984;2023-05-23T07:55:59;36.78;;;24.90;;
17993;SDS011;9122;48.406;9.984;2023-05-23T07:58:44;35.90;;;24.58;;
17993;SDS011;9122;48.406;9.984;2023-05-23T08:01:29;41.45;;;26.25;;
17993;SDS011;9122;48.406;9.984;2023-05-23T08:04:14;34.97;;;24.15;;
17993;SDS011;9122;48.406;9.984;2023-05-23T08:06:59;39.20;;;24.42;;
17993;SDS011;9122;48.406;9.984;2023-05-23T08:09:44;34.45;;;23.73;;
17993;SDS011;9122;48.406;9.984;2023-05-23T08:12:29;38.67;;;27.13;;
17993;SDS011;9122;48.406;9.984;2023-05-23T08:15:13;37.75;;;24.58;;
17993;SDS011;9122;48.406;9.984;2023-05-23T08:17:58;33.63;;;24.20;;
17993;SDS011;9122;48.406;9.984;2023-05-23T08:20:43;33.60;;;24.17;;
17993;SDS011;9122;48.406;9.984;2023-05-23T08:23:27;34.42;;;23.90;;
17993;SDS011;9122;48.406;9.984;2023-05-23T08:26:12;39.83;;;25.92;;
17993;SDS011;9122;48.406;9.984;2023-05-23T08:28:56;36.20;;;23.85;;
17993;SDS011;9122;48.406;9.984;2023-05-23T08:31:40;35.08;;;22.67;;
17993;SDS011;9122;48.406;9.984;2023-05-23T08:34:25;34.90;;;24.00;;
17993;SDS011;9122;48.406;9.984;2023-05-23T08:37:09;35.28;;;26.08;;
17993;SDS011;9122;48.406;9.984;2023-05-23T08:39:54;34.22;;;24.67;;
17993;SDS011;9122;48.406;9.984;2023-05-23T08:42:38;32.72;;;23.80;;
17993;SDS011;9122;48.406;9.984;2023-05-23T08:45:23;33.80;;;23.25;;
17993;SDS011;9122;48.406;9.984;2023-05-23T08:48:08;35.33;;;22.08;;
17993;SDS011;9122;48.406;9.984;2023-05-23T08:50:56;26.90;;;20.92;;
17993;SDS011;9122;48.406;9.984;2023-05-23T08:53:42;32.90;;;22.98;;
17993;SDS011;9122;48.406;9.984;2023-05-23T08:56:29;28.13;;;21.48;;
17993;SDS011;9122;48.406;9.984;2023-05-23T08:59:14;28.17;;;20.17;;
17993;SDS011;9122;48.406;9.984;2023-05-23T09:01:59;26.38;;;21.10;;
17993;SDS011;9122;48.406;9.984;2023-05-23T09:04:46;26.83;;;20.17;;
17993;SDS011;9122;48.406;9.984;2023-05-23T09:07:30;30.33;;;21.38;;
17993;SDS011;9122;48.406;9.984;2023-05-23T09:10:15;26.30;;;19.92;;
17993;SDS011;9122;48.406;9.984;2023-05-23T09:13:05;27.17;;;21.50;;
17993;SDS011;9122;48.406;9.984;2023-05-23T09:18:43;26.58;;;21.10;;
17993;SDS011;9122;48.406;9.984;2023-05-23T09:21:28;29.75;;;20.27;;
17993;SDS011;9122;48.406;9.984;2023-05-23T09:24:14;28.85;;;22.35;;
17993;SDS011;9122;48.406;9.984;2023-05-23T09:26:58;30.55;;;21.70;;
17993;SDS011;9122;48.406;9.984;2023-05-23T09:29:44;27.67;;;21.42;;
17993;SDS011;9122;48.406;9.984;2023-05-23T09:32:30;29.50;;;21.30;;
17993;SDS011;9122;48.406;9.984;2023-05-23T09:35:14;29.85;;;21.95;;
17993;SDS011;9122;48.406;9.984;2023-05-23T09:37:59;26.63;;;18.77;;
17993;SDS011;9122;48.406;9.984;2023-05-23T09:40:44;25.60;;;20.05;;
17993;SDS011;9122;48.406;9.984;2023-05-23T09:43:28;25.92;;;19.48;;
17993;SDS011;9122;48.406;9.984;2023-05-23T09:46:13;24.60;;;20.25;;
17993;SDS011;9122;48.406;9.984;2023-05-23T09:48:57;24.40;;;19.55;;
17993;SDS011;9122;48.406;9.984;2023-05-23T09:51:43;28.23;;;20.98;;
17993;SDS011;9122;48.406;9.984;2023-05-23T09:54:27;24.58;;;19.25;;
17993;SDS011;9122;48.406;9.984;2023-05-23T09:57:13;26.48;;;18.92;;
17993;SDS011;9122;48.406;9.984;2023-05-23T09:59:59;28.98;;;20.83;;
17993;SDS011;9122;48.406;9.984;2023-05-23T10:05:56;27.30;;;21.10;;
17993;SDS011;9122;48.406;9.984;2023-05-23T10:08:45;23.67;;;20.42;;
17993;SDS011;9122;48.406;9.984;2023-05-23T10:14:43;21.25;;;18.00;;
17993;SDS011;9122;48.406;9.984;2023-05-23T10:20:46;27.15;;;20.38;;
17993;SDS011;9122;48.406;9.984;2023-05-23T10:23:32;26.25;;;20.13;;
17993;SDS011;9122;48.406;9.984;2023-05-23T10:26:17;27.17;;;19.52;;
17993;SDS011;9122;48.406;9.984;2023-05-23T10:29:02;25.40;;;20.00;;
17993;SDS011;9122;48.406;9.984;2023-05-23T10:31:48;24.70;;;20.10;;
17993;SDS011;9122;48.406;9.984;2023-05-23T10:34:36;25.98;;;19.88;;
17993;SDS011;9122;48.406;9.984;2023-05-23T10:37:50;23.83;;;19.75;;
17993;SDS011;9122;48.406;9.984;2023-05-23T10:43:56;26.17;;;20.35;;
17993;SDS011;9122;48.406;9.984;2023-05-23T10:49:44;23.10;;;19.45;;
17993;SDS011;9122;48.406;9.984;2023-05-23T10:52:30;21.40;;;18.23;;
17993;SDS011;9122;48.406;9.984;2023-05-23T10:55:23;24.38;;;18.88;;
17993;SDS011;9122;48.406;9.984;2023-05-23T10:58:08;19.17;;;17.17;;
17993;SDS011;9122;48.406;9.984;2023-05-23T11:01:00;22.70;;;17.45;;
17993;SDS011;9122;48.406;9.984;2023-05-23T11:03:49;23.50;;;17.02;;
17993;SDS011;9122;48.406;9.984;2023-05-23T11:06:38;19.38;;;16.42;;
17993;SDS011;9122;48.406;9.984;2023-05-23T11:09:25;22.40;;;18.17;;
17993;SDS011;9122;48.406;9.984;2023-05-23T11:12:10;20.15;;;16.10;;
17993;SDS011;9122;48.406;9.984;2023-05-23T11:14:54;20.30;;;16.95;;
17993;SDS011;9122;48.406;9.984;2023-05-23T11:17:47;20.10;;;17.00;;
17993;SDS011;9122;48.406;9.984;2023-05-23T11:20:39;19.58;;;17.27;;
17993;SDS011;9122;48.406;9.984;2023-05-23T11:23:38;19.13;;;17.13;;
17993;SDS011;9122;48.406;9.984;2023-05-23T11:26:27;21.45;;;17.60;;
17993;SDS011;9122;48.406;9.984;2023-05-23T11:29:13;20.83;;;18.13;;
17993;SDS011;9122;48.406;9.984;2023-05-23T11:31:59;22.38;;;17.73;;
17993;SDS011;9122;48.406;9.984;2023-05-23T11:34:48;22.48;;;16.92;;
17993;SDS011;9122;48.406;9.984;2023-05-23T11:37:33;19.38;;;17.30;;
17993;SDS011;9122;48.406;9.984;2023-05-23T11:40:28;24.50;;;16.83;;
17993;SDS011;9122;48.406;9.984;2023-05-23T11:43:20;17.30;;;15.07;;
17993;SDS011;9122;48.406;9.984;2023-05-23T11:46:08;16.23;;;14.52;;
17993;SDS011;9122;48.406;9.984;2023-05-23T11:48:52;21.58;;;14.98;;
17993;SDS011;9122;48.406;9.984;2023-05-23T11:51:36;15.07;;;13.57;;
17993;SDS011;9122;48.406;9.984;2023-05-23T11:54:22;14.35;;;12.85;;
17993;SDS011;9122;48.406;9.984;2023-05-23T11:57:12;17.55;;;15.68;;
17993;SDS011;9122;48.406;9.984;2023-05-23T11:59:57;16.17;;;13.68;;
17993;SDS011;9122;48.406;9.984;2023-05-23T12:02:42;15.98;;;14.35;;
17993;SDS011;9122;48.406;9.984;2023-05-23T12:05:27;17.25;;;14.90;;
17993;SDS011;9122;48.406;9.984;2023-05-23T12:08:12;16.92;;;14.73;;
17993;SDS011;9122;48.406;9.984;2023-05-23T12:10:58;16.92;;;13.70;;
17993;SDS011;9122;48.406;9.984;2023-05-23T12:13:44;16.73;;;14.50;;
17993;SDS011;9122;48.406;9.984;2023-05-23T12:16:28;14.98;;;13.27;;
17993;SDS011;9122;48.406;9.984;2023-05-23T12:19:13;15.43;;;13.30;;
17993;SDS011;9122;48.406;9.984;2023-05-23T12:22:04;15.40;;;12.95;;
17993;SDS011;9122;48.406;9.984;2023-05-23T12:24:53;15.32;;;12.93;;
17993;SDS011;9122;48.406;9.984;2023-05-23T12:27:39;10.85;;;9.75;;
17993;SDS011;9122;48.406;9.984;2023-05-23T12:30:26;13.00;;;11.70;;
17993;SDS011;9122;48.406;9.984;2023-05-23T12:33:11;12.27;;;11.18;;
17993;SDS011;9122;48.406;9.984;2023-05-23T12:35:55;13.68;;;11.10;;
17993;SDS011;9122;48.406;9.984;2023-05-23T12:38:41;12.32;;;11.13;;
17993;SDS011;9122;48.406;9.984;2023-05-23T12:41:27;13.13;;;11.88;;
17993;SDS011;9122;48.406;9.984;2023-05-23T12:44:14;12.05;;;10.85;;
17993;SDS011;9122;48.406;9.984;2023-05-23T12:46:59;12.80;;;10.98;;
17993;SDS011;9122;48.406;9.984;2023-05-23T12:49:45;14.27;;;11.90;;
17993;SDS011;9122;48.406;9.984;2023-05-23T12:52:30;13.50;;;11.27;;
17993;SDS011;9122;48.406;9.984;2023-05-23T12:55:15;13.20;;;11.90;;
17993;SDS011;9122;48.406;9.984;2023-05-23T12:57:59;15.07;;;11.45;;
17993;SDS011;9122;48.406;9.984;2023-05-23T13:00:44;12.75;;;10.98;;
17993;SDS011;9122;48.406;9.984;2023-05-23T13:03:28;14.27;;;11.85;;
17993;SDS011;9122;48.406;9.984;2023-05-23T13:06:16;13.18;;;11.02;;
17993;SDS011;9122;48.406;9.984;2023-05-23T13:09:02;12.57;;;11.15;;
17993;SDS011;9122;48.406;9.984;2023-05-23T13:11:46;14.25;;;12.32;;
17993;SDS011;9122;48.406;9.984;2023-05-23T13:14:30;12.88;;;11.50;;
17993;SDS011;9122;48.406;9.984;2023-05-23T13:17:15;13.30;;;12.00;;
17993;SDS011;9122;48.406;9.984;2023-05-23T13:20:00;13.52;;;11.52;;
17993;SDS011;9122;48.406;9.984;2023-05-23T13:22:44;13.25;;;12.05;;
17993;SDS011;9122;48.406;9.984;2023-05-23T13:25:28;14.85;;;12.88;;
17993;SDS011;9122;48.406;9.984;2023-05-23T13:28:13;13.30;;;11.23;;
17993;SDS011;9122;48.406;9.984;2023-05-23T13:30:57;12.30;;;10.95;;
17993;SDS011;9122;48.406;9.984;2023-05-23T13:33:42;16.92;;;12.07;;
17993;SDS011;9122;48.406;9.984;2023-05-23T13:36:27;12.32;;;11.10;;
17993;SDS011;9122;48.406;9.984;2023-05-23T13:39:12;11.25;;;10.23;;
17993;SDS011;9122;48.406;9.984;2023-05-23T13:41:57;10.80;;;9.73;;
17993;SDS011;9122;48.406;9.984;2023-05-23T13:44:42;10.70;;;9.65;;
17993;SDS011;9122;48.406;9.984;2023-05-23T13:47:26;15.35;;;10.07;;
17993;SDS011;9122;48.406;9.984;2023-05-23T13:50:11;10.40;;;9.38;;
17993;SDS011;9122;48.406;9.984;2023-05-23T13:52:55;9.93;;;8.95;;
17993;SDS011;9122;48.406;9.984;2023-05-23T13:55:40;10.10;;;9.10;;
17993;SDS011;9122;48.406;9.984;2023-05-23T13:58:25;10.57;;;9.48;;
17993;SDS011;9122;48.406;9.984;2023-05-23T14:01:10;13.32;;;10.73;;
17993;SDS011;9122;48.406;9.984;2023-05-23T14:03:54;10.57;;;9.48;;
17993;SDS011;9122;48.406;9.984;2023-05-23T14:06:39;11.02;;;10.02;;
17993;SDS011;9122;48.406;9.984;2023-05-23T14:09:23;10.68;;;9.70;;
17993;SDS011;9122;48.406;9.984;2023-05-23T14:12:09;11.75;;;10.73;;
17993;SDS011;9122;48.406;9.984;2023-05-23T14:14:54;11.30;;;10.20;;
17993;SDS011;9122;48.406;9.984;2023-05-23T14:17:38;10.32;;;9.43;;
17993;SDS011;9122;48.406;9.984;2023-05-23T14:20:23;11.35;;;9.25;;
17993;SDS011;9122;48.406;9.984;2023-05-23T14:23:07;10.27;;;9.38;;
17993;SDS011;9122;48.406;9.984;2023-05-23T14:25:52;12.98;;;9.18;;
17993;SDS011;9122;48.406;9.984;2023-05-23T14:28:36;10.18;;;9.23;;
17993;SDS011;9122;48.406;9.984;2023-05-23T14:31:21;9.50;;;8.52;;
17993;SDS011;9122;48.406;9.984;2023-05-23T14:34:05;9.65;;;8.75;;
17993;SDS011;9122;48.406;9.984;2023-05-23T14:36:49;9.55;;;8.75;;
17993;SDS011;9122;48.406;9.984;2023-05-23T14:39:34;8.80;;;8.02;;
17993;SDS011;9122;48.406;9.984;2023-05-23T14:42:18;9.43;;;8.52;;
17993;SDS011;9122;48.406;9.984;2023-05-23T14:45:03;8.77;;;8.00;;
17993;SDS011;9122;48.406;9.984;2023-05-23T14:47:49;8.20;;;7.40;;
17993;SDS011;9122;48.406;9.984;2023-05-23T14:50:34;11.50;;;8.38;;
17993;SDS011;9122;48.406;9.984;2023-05-23T14:53:18;8.05;;;7.25;;
17993;SDS011;9122;48.406;9.984;2023-05-23T14:56:06;9.00;;;7.55;;
17993;SDS011;9122;48.406;9.984;2023-05-23T14:58:51;9.50;;;8.05;;
17993;SDS011;9122;48.406;9.984;2023-05-23T15:01:35;8.77;;;7.90;;
17993;SDS011;9122;48.406;9.984;2023-05-23T15:04:19;8.73;;;7.93;;
17993;SDS011;9122;48.406;9.984;2023-05-23T15:07:06;8.20;;;7.40;;
17993;SDS011;9122;48.406;9.984;2023-05-23T15:09:51;8.80;;;8.00;;
17993;SDS011;9122;48.406;9.984;2023-05-23T15:12:36;8.15;;;7.43;;
17993;SDS011;9122;48.406;9.984;2023-05-23T15:15:20;8.10;;;7.30;;
17993;SDS011;9122;48.406;9.984;2023-05-23T15:18:06;8.57;;;7.78;;
17993;SDS011;9122;48.406;9.984;2023-05-23T15:20:52;8.77;;;7.97;;
17993;SDS011;9122;48.406;9.984;2023-05-23T15:23:36;9.65;;;8.07;;
17993;SDS011;9122;48.406;9.984;2023-05-23T15:26:21;7.50;;;6.85;;
17993;SDS011;9122;48.406;9.984;2023-05-23T15:29:06;6.43;;;5.93;;
17993;SDS011;9122;48.406;9.984;2023-05-23T15:31:50;8.95;;;7.25;;
17993;SDS011;9122;48.406;9.984;2023-05-23T15:34:35;6.50;;;5.80;;
17993;SDS011;9122;48.406;9.984;2023-05-23T15:37:19;7.35;;;6.70;;
17993;SDS011;9122;48.406;9.984;2023-05-23T15:40:04;6.35;;;5.85;;
17993;SDS011;9122;48.406;9.984;2023-05-23T15:42:49;6.95;;;6.35;;
17993;SDS011;9122;48.406;9.984;2023-05-23T15:45:33;7.28;;;6.55;;
17993;SDS011;9122;48.406;9.984;2023-05-23T15:48:18;6.93;;;6.32;;
17993;SDS011;9122;48.406;9.984;2023-05-23T15:51:02;7.10;;;6.60;;
17993;SDS011;9122;48.406;9.984;2023-05-23T15:53:47;6.85;;;6.28;;
17993;SDS011;9122;48.406;9.984;2023-05-23T15:56:31;7.28;;;6.68;;
17993;SDS011;9122;48.406;9.984;2023-05-23T15:59:16;6.47;;;5.93;;
17993;SDS011;9122;48.406;9.984;2023-05-23T16:02:00;6.30;;;5.70;;
17993;SDS011;9122;48.406;9.984;2023-05-23T16:04:48;5.30;;;4.90;;
17993;SDS011;9122;48.406;9.984;2023-05-23T16:07:33;6.07;;;5.30;;
17993;SDS011;9122;48.406;9.984;2023-05-23T16:10:18;5.70;;;5.03;;
17993;SDS011;9122;48.406;9.984;2023-05-23T16:13:02;5.82;;;5.28;;
17993;SDS011;9122;48.406;9.984;2023-05-23T16:15:47;6.03;;;5.45;;
17993;SDS011;9122;48.406;9.984;2023-05-23T16:18:32;5.03;;;4.63;;
17993;SDS011;9122;48.406;9.984;2023-05-23T16:21:16;5.72;;;5.22;;
17993;SDS011;9122;48.406;9.984;2023-05-23T16:24:03;5.22;;;4.80;;
17993;SDS011;9122;48.406;9.984;2023-05-23T16:26:48;4.82;;;4.43;;
17993;SDS011;9122;48.406;9.984;2023-05-23T16:29:33;5.03;;;4.63;;
17993;SDS011;9122;48.406;9.984;2023-05-23T16:32:17;5.05;;;4.65;;
17993;SDS011;9122;48.406;9.984;2023-05-23T16:35:01;5.45;;;4.95;;
17993;SDS011;9122;48.406;9.984;2023-05-23T16:37:46;4.43;;;4.13;;
17993;SDS011;9122;48.406;9.984;2023-05-23T16:40:30;4.70;;;4.30;;
17993;SDS011;9122;48.406;9.984;2023-05-23T16:43:14;4.97;;;4.57;;
17993;SDS011;9122;48.406;9.984;2023-05-23T16:45:58;4.28;;;3.85;;
17993;SDS011;9122;48.406;9.984;2023-05-23T16:48:43;4.90;;;4.50;;